sensor_id;sensor_type;location;lat;lon;timestamp;temperature;humidity
3310;DHT22;1667;53.238;10.394;2023-11-19T00:01:20;9.20;99.90
3310;DHT22;1667;53.238;10.394;2023-11-19T00:06:19;9.20;99.90
3310;DHT22;1667;53.238;10.394;2023-11-19T00:11:17;9.10;99.90
3310;DHT22;1667;53.238;10.394;2023-11-19T00:16:16;9.20;99.90
3310;DHT22;1667;53.238;10.394;2023-11-19T00:28:11;9.20;99.90
3310;DHT22;1667;53.238;10.394;2023-11-19T00:33:11;9.20;99.90
3310;DHT22;1667;53.238;10.394;2023-11-19T00:38:10;9.20;99.90
3310;DHT22;1667;53.238;10.394;2023-11-19T00:43:09;9.20;99.90
3310;DHT22;1667;53.238;10.394;2023-11-19T00:48:08;9.20;99.90
3310;DHT22;1667;53.238;10.394;2023-11-19T00:53:08;9.30;99.90
3310;DHT22;1667;53.238;10.394;2023-11-19T00:58:07;9.30;99.90
3310;DHT22;1667;53.238;10.394;2023-11-19T01:03:06;9.20;99.90
3310;DHT22;1667;53.238;10.394;2023-11-19T01:08:05;9.30;99.90
3310;DHT22;1667;53.238;10.394;2023-11-19T01:13:07;9.30;99.90
3310;DHT22;1667;53.238;10.394;2023-11-19T01:18:06;9.30;99.90
3310;DHT22;1667;53.238;10.394;2023-11-19T01:23:06;9.30;99.90
3310;DHT22;1667;53.238;10.394;2023-11-19T01:28:07;9.30;99.90
3310;DHT22;1667;53.238;10.394;2023-11-19T01:33:06;9.40;99.90
3310;DHT22;1667;53.238;10.394;2023-11-19T01:38:05;9.40;99.90
3310;DHT22;1667;53.238;10.394;2023-11-19T01:43:04;9.40;99.90
3310;DHT22;1667;53.238;10.394;2023-11-19T01:48:05;9.40;99.90
3310;DHT22;1667;53.238;10.394;2023-11-19T01:53:04;9.40;99.90
3310;DHT22;1667;53.238;10.394;2023-11-19T01:58:02;9.40;99.90
3310;DHT22;1667;53.238;10.394;2023-11-19T02:03:03;9.40;99.90
3310;DHT22;1667;53.238;10.394;2023-11-19T02:08:05;9.40;99.90
3310;DHT22;1667;53.238;10.394;2023-11-19T02:13:03;9.40;99.90
3310;DHT22;1667;53.238;10.394;2023-11-19T02:18:22;9.40;99.90
3310;DHT22;1667;53.238;10.394;2023-11-19T02:23:21;9.60;99.90
3310;DHT22;1667;53.238;10.394;2023-11-19T02:28:21;9.50;99.90
3310;DHT22;1667;53.238;10.394;2023-11-19T02:33:20;9.50;99.90
3310;DHT22;1667;53.238;10.394;2023-11-19T02:38:20;9.50;99.90
3310;DHT22;1667;53.238;10.394;2023-11-19T02:43:21;9.50;99.90
3310;DHT22;1667;53.238;10.394;2023-11-19T02:48:20;9.70;99.90
3310;DHT22;1667;53.238;10.394;2023-11-19T02:53:19;9.50;99.90
3310;DHT22;1667;53.238;10.394;2023-11-19T02:58:21;9.50;99.90
3310;DHT22;1667;53.238;10.394;2023-11-19T03:03:22;9.50;99.90
3310;DHT22;1667;53.238;10.394;2023-11-19T03:08:26;9.50;99.90
3310;DHT22;1667;53.238;10.394;2023-11-19T03:13:27;9.50;99.90
3310;DHT22;1667;53.238;10.394;2023-11-19T03:18:26;9.60;99.90
3310;DHT22;1667;53.238;10.394;2023-11-19T03:23:26;9.60;99.90
3310;DHT22;1667;53.238;10.394;2023-11-19T03:28:27;9.60;99.90
3310;DHT22;1667;53.238;10.394;2023-11-19T03:33:26;9.60;99.90
3310;DHT22;1667;53.238;10.394;2023-11-19T03:38:26;9.60;99.90
3310;DHT22;1667;53.238;10.394;2023-11-19T03:43:26;9.60;99.90
3310;DHT22;1667;53.238;10.394;2023-11-19T03:48:25;9.60;99.90
3310;DHT22;1667;53.238;10.394;2023-11-19T03:53:24;9.60;99.90
3310;DHT22;1667;53.238;10.394;2023-11-19T03:58:23;9.60;99.90
3310;DHT22;1667;53.238;10.394;2023-11-19T04:03:23;9.70;99.90
3310;DHT22;1667;53.238;10.394;2023-11-19T04:08:22;9.70;99.90
3310;DHT22;1667;53.238;10.394;2023-11-19T04:13:21;9.70;99.90
3310;DHT22;1667;53.238;10.394;2023-11-19T04:18:23;9.80;99.90
3310;DHT22;1667;53.238;10.394;2023-11-19T04:23:22;10.00;99.90
3310;DHT22;1667;53.238;10.394;2023-11-19T04:28:22;9.80;99.90
3310;DHT22;1667;53.238;10.394;2023-11-19T04:33:26;9.80;99.90
3310;DHT22;1667;53.238;10.394;2023-11-19T04:38:25;10.00;99.90
3310;DHT22;1667;53.238;10.394;2023-11-19T04:43:24;9.90;99.90
3310;DHT22;1667;53.238;10.394;2023-11-19T04:48:24;9.90;99.90
3310;DHT22;1667;53.238;10.394;2023-11-19T04:53:24;9.90;99.90
3310;DHT22;1667;53.238;10.394;2023-11-19T04:58:23;9.90;99.90
3310;DHT22;1667;53.238;10.394;2023-11-19T05:03:22;9.90;99.90
3310;DHT22;1667;53.238;10.394;2023-11-19T05:08:21;10.00;99.90
3310;DHT22;1667;53.238;10.394;2023-11-19T05:13:22;10.00;99.90
3310;DHT22;1667;53.238;10.394;2023-11-19T05:18:21;10.10;99.90
3310;DHT22;1667;53.238;10.394;2023-11-19T05:23:21;10.10;99.90
3310;DHT22;1667;53.238;10.394;2023-11-19T05:28:21;10.20;99.90
3310;DHT22;1667;53.238;10.394;2023-11-19T05:33:22;10.10;99.90
3310;DHT22;1667;53.238;10.394;2023-11-19T05:38:21;10.20;99.90
3310;DHT22;1667;53.238;10.394;2023-11-19T05:43:21;10.20;99.90
3310;DHT22;1667;53.238;10.394;2023-11-19T05:48:20;10.50;99.90
3310;DHT22;1667;53.238;10.394;2023-11-19T05:53:38;10.30;99.90
3310;DHT22;1667;53.238;10.394;2023-11-19T05:58:39;10.40;99.90
3310;DHT22;1667;53.238;10.394;2023-11-19T06:03:38;10.40;99.90
3310;DHT22;1667;53.238;10.394;2023-11-19T06:08:37;10.50;99.90
3310;DHT22;1667;53.238;10.394;2023-11-19T06:13:36;10.60;99.90
3310;DHT22;1667;53.238;10.394;2023-11-19T06:18:37;10.60;99.90
3310;DHT22;1667;53.238;10.394;2023-11-19T06:23:36;10.60;99.90
3310;DHT22;1667;53.238;10.394;2023-11-19T06:28:35;10.60;99.90
3310;DHT22;1667;53.238;10.394;2023-11-19T06:33:34;10.70;99.90
3310;DHT22;1667;53.238;10.394;2023-11-19T06:38:35;10.70;99.90
3310;DHT22;1667;53.238;10.394;2023-11-19T06:43:33;10.80;99.90
3310;DHT22;1667;53.238;10.394;2023-11-19T06:48:35;10.80;99.90
3310;DHT22;1667;53.238;10.394;2023-11-19T06:53:35;10.90;99.90
3310;DHT22;1667;53.238;10.394;2023-11-19T06:58:36;10.90;99.90
3310;DHT22;1667;53.238;10.394;2023-11-19T07:03:35;11.00;99.90
3310;DHT22;1667;53.238;10.394;2023-11-19T07:08:35;11.10;99.90
3310;DHT22;1667;53.238;10.394;2023-11-19T07:13:36;11.20;99.90
3310;DHT22;1667;53.238;10.394;2023-11-19T07:18:35;11.20;99.90
3310;DHT22;1667;53.238;10.394;2023-11-19T07:23:58;11.30;99.90
3310;DHT22;1667;53.238;10.394;2023-11-19T07:28:57;11.40;99.90
3310;DHT22;1667;53.238;10.394;2023-11-19T07:33:56;11.50;99.90
3310;DHT22;1667;53.238;10.394;2023-11-19T07:38:55;11.60;99.90
3310;DHT22;1667;53.238;10.394;2023-11-19T07:43:56;11.60;99.90
3310;DHT22;1667;53.238;10.394;2023-11-19T07:48:55;11.70;99.90
3310;DHT22;1667;53.238;10.394;2023-11-19T07:53:54;11.80;99.90
3310;DHT22;1667;53.238;10.394;2023-11-19T07:58:53;11.80;99.90
3310;DHT22;1667;53.238;10.394;2023-11-19T08:03:54;11.90;99.90
3310;DHT22;1667;53.238;10.394;2023-11-19T08:08:56;11.90;99.90
3310;DHT22;1667;53.238;10.394;2023-11-19T08:13:55;12.00;99.90
3310;DHT22;1667;53.238;10.394;2023-11-19T08:18:55;12.00;99.90
3310;DHT22;1667;53.238;10.394;2023-11-19T08:23:56;12.10;99.90
3310;DHT22;1667;53.238;10.394;2023-11-19T08:28:55;12.10;99.90
3310;DHT22;1667;53.238;10.394;2023-11-19T08:33:56;12.20;99.90
3310;DHT22;1667;53.238;10.394;2023-11-19T08:38:55;12.30;99.90
3310;DHT22;1667;53.238;10.394;2023-11-19T08:43:55;12.40;99.90
3310;DHT22;1667;53.238;10.394;2023-11-19T08:48:55;12.40;99.90
3310;DHT22;1667;53.238;10.394;2023-11-19T08:53:55;12.50;99.90
3310;DHT22;1667;53.238;10.394;2023-11-19T08:58:55;12.50;99.90
3310;DHT22;1667;53.238;10.394;2023-11-19T09:03:55;12.60;99.90
3310;DHT22;1667;53.238;10.394;2023-11-19T09:08:54;12.60;99.90
3310;DHT22;1667;53.238;10.394;2023-11-19T09:13:58;12.60;99.90
3310;DHT22;1667;53.238;10.394;2023-11-19T09:18:57;12.60;99.90
3310;DHT22;1667;53.238;10.394;2023-11-19T09:24:00;12.60;99.90
3310;DHT22;1667;53.238;10.394;2023-11-19T09:28:58;12.60;99.90
3310;DHT22;1667;53.238;10.394;2023-11-19T09:33:59;12.60;99.90
3310;DHT22;1667;53.238;10.394;2023-11-19T09:38:58;12.70;99.90
3310;DHT22;1667;53.238;10.394;2023-11-19T09:43:57;12.70;99.90
3310;DHT22;1667;53.238;10.394;2023-11-19T09:48:59;12.70;99.90
3310;DHT22;1667;53.238;10.394;2023-11-19T09:53:59;12.80;99.90
3310;DHT22;1667;53.238;10.394;2023-11-19T09:58:59;12.80;99.90
3310;DHT22;1667;53.238;10.394;2023-11-19T10:03:59;12.80;99.90
3310;DHT22;1667;53.238;10.394;2023-11-19T10:08:59;12.90;99.90
3310;DHT22;1667;53.238;10.394;2023-11-19T10:13:58;12.90;99.90
3310;DHT22;1667;53.238;10.394;2023-11-19T10:25:29;13.00;99.90
3310;DHT22;1667;53.238;10.394;2023-11-19T10:30:30;13.00;99.90
3310;DHT22;1667;53.238;10.394;2023-11-19T10:35:31;13.10;99.90
3310;DHT22;1667;53.238;10.394;2023-11-19T10:40:41;13.10;99.90
3310;DHT22;1667;53.238;10.394;2023-11-19T10:45:40;13.20;99.90
3310;DHT22;1667;53.238;10.394;2023-11-19T10:50:40;13.20;99.90
3310;DHT22;1667;53.238;10.394;2023-11-19T10:55:41;13.30;99.90
3310;DHT22;1667;53.238;10.394;2023-11-19T11:00:44;13.30;99.90
3310;DHT22;1667;53.238;10.394;2023-11-19T11:05:46;13.30;99.90
3310;DHT22;1667;53.238;10.394;2023-11-19T11:10:52;13.40;99.90
3310;DHT22;1667;53.238;10.394;2023-11-19T11:15:55;13.40;99.90
3310;DHT22;1667;53.238;10.394;2023-11-19T11:21:09;13.40;99.90
3310;DHT22;1667;53.238;10.394;2023-11-19T11:26:27;13.40;99.90
3310;DHT22;1667;53.238;10.394;2023-11-19T11:31:39;13.30;99.90
3310;DHT22;1667;53.238;10.394;2023-11-19T11:36:48;13.40;99.90
3310;DHT22;1667;53.238;10.394;2023-11-19T11:42:41;13.40;99.90
3310;DHT22;1667;53.238;10.394;2023-11-19T11:48:11;13.50;99.90
3310;DHT22;1667;53.238;10.394;2023-11-19T11:53:14;13.60;99.90
3310;DHT22;1667;53.238;10.394;2023-11-19T11:58:17;13.70;99.90
3310;DHT22;1667;53.238;10.394;2023-11-19T12:03:20;13.80;99.90
3310;DHT22;1667;53.238;10.394;2023-11-19T12:08:22;13.90;99.90
3310;DHT22;1667;53.238;10.394;2023-11-19T12:13:24;13.90;99.90
3310;DHT22;1667;53.238;10.394;2023-11-19T12:18:24;13.90;99.90
3310;DHT22;1667;53.238;10.394;2023-11-19T12:23:24;13.80;99.90
3310;DHT22;1667;53.238;10.394;2023-11-19T12:28:25;13.80;99.90
3310;DHT22;1667;53.238;10.394;2023-11-19T12:33:25;13.90;99.90
3310;DHT22;1667;53.238;10.394;2023-11-19T12:38:26;13.90;99.90
3310;DHT22;1667;53.238;10.394;2023-11-19T12:43:26;13.90;99.90
3310;DHT22;1667;53.238;10.394;2023-11-19T12:48:25;14.00;99.90
3310;DHT22;1667;53.238;10.394;2023-11-19T12:53:24;14.00;99.90
3310;DHT22;1667;53.238;10.394;2023-11-19T12:58:32;14.00;99.90
3310;DHT22;1667;53.238;10.394;2023-11-19T13:03:32;14.00;99.90
3310;DHT22;1667;53.238;10.394;2023-11-19T13:08:38;14.00;99.90
3310;DHT22;1667;53.238;10.394;2023-11-19T13:13:55;14.10;99.90
3310;DHT22;1667;53.238;10.394;2023-11-19T13:18:55;14.10;99.90
3310;DHT22;1667;53.238;10.394;2023-11-19T13:23:54;14.00;99.90
3310;DHT22;1667;53.238;10.394;2023-11-19T13:28:55;14.00;99.90
3310;DHT22;1667;53.238;10.394;2023-11-19T13:33:54;14.00;99.90
3310;DHT22;1667;53.238;10.394;2023-11-19T13:38:54;14.00;99.90
3310;DHT22;1667;53.238;10.394;2023-11-19T13:43:58;14.00;99.90
3310;DHT22;1667;53.238;10.394;2023-11-19T13:48:58;13.90;99.90
3310;DHT22;1667;53.238;10.394;2023-11-19T13:53:56;13.90;99.90
3310;DHT22;1667;53.238;10.394;2023-11-19T13:58:55;13.80;99.90
3310;DHT22;1667;53.238;10.394;2023-11-19T14:03:55;13.80;99.90
3310;DHT22;1667;53.238;10.394;2023-11-19T14:08:55;13.70;99.90
3310;DHT22;1667;53.238;10.394;2023-11-19T14:13:53;13.70;99.90
3310;DHT22;1667;53.238;10.394;2023-11-19T14:18:53;13.70;99.90
3310;DHT22;1667;53.238;10.394;2023-11-19T14:23:53;13.60;99.90
3310;DHT22;1667;53.238;10.394;2023-11-19T14:28:51;13.60;99.90
3310;DHT22;1667;53.238;10.394;2023-11-19T14:33:51;13.50;99.90
3310;DHT22;1667;53.238;10.394;2023-11-19T14:38:54;13.50;99.90
3310;DHT22;1667;53.238;10.394;2023-11-19T14:43:54;13.50;99.90
3310;DHT22;1667;53.238;10.394;2023-11-19T14:48:54;13.50;99.90
3310;DHT22;1667;53.238;10.394;2023-11-19T14:53:54;13.50;99.90
3310;DHT22;1667;53.238;10.394;2023-11-19T14:58:54;13.50;99.90
3310;DHT22;1667;53.238;10.394;2023-11-19T15:03:52;13.20;99.90
3310;DHT22;1667;53.238;10.394;2023-11-19T15:08:55;13.40;99.90
3310;DHT22;1667;53.238;10.394;2023-11-19T15:13:54;13.30;99.90
3310;DHT22;1667;53.238;10.394;2023-11-19T15:18:52;13.20;99.90
3310;DHT22;1667;53.238;10.394;2023-11-19T15:30:49;13.10;99.90
3310;DHT22;1667;53.238;10.394;2023-11-19T15:35:48;13.00;99.90
3310;DHT22;1667;53.238;10.394;2023-11-19T15:40:46;13.00;99.90
3310;DHT22;1667;53.238;10.394;2023-11-19T15:45:45;12.90;99.90
3310;DHT22;1667;53.238;10.394;2023-11-19T15:50:46;12.90;99.90
3310;DHT22;1667;53.238;10.394;2023-11-19T15:55:45;12.80;99.90
3310;DHT22;1667;53.238;10.394;2023-11-19T16:00:45;12.80;99.90
3310;DHT22;1667;53.238;10.394;2023-11-19T16:05:46;12.80;99.90
3310;DHT22;1667;53.238;10.394;2023-11-19T16:11:04;12.70;99.90
3310;DHT22;1667;53.238;10.394;2023-11-19T16:16:04;12.70;99.90
3310;DHT22;1667;53.238;10.394;2023-11-19T16:21:07;12.70;99.90
3310;DHT22;1667;53.238;10.394;2023-11-19T16:26:06;12.70;99.90
3310;DHT22;1667;53.238;10.394;2023-11-19T16:31:06;12.70;99.90
3310;DHT22;1667;53.238;10.394;2023-11-19T16:36:07;12.70;99.90
3310;DHT22;1667;53.238;10.394;2023-11-19T16:41:07;12.70;99.90
3310;DHT22;1667;53.238;10.394;2023-11-19T16:46:06;12.60;99.90
3310;DHT22;1667;53.238;10.394;2023-11-19T16:51:11;12.60;99.90
3310;DHT22;1667;53.238;10.394;2023-11-19T16:56:11;12.60;99.90
3310;DHT22;1667;53.238;10.394;2023-11-19T17:01:10;12.60;99.90
3310;DHT22;1667;53.238;10.394;2023-11-19T17:06:11;12.60;99.90
3310;DHT22;1667;53.238;10.394;2023-11-19T17:11:12;12.60;99.90
3310;DHT22;1667;53.238;10.394;2023-11-19T17:16:32;12.60;99.90
3310;DHT22;1667;53.238;10.394;2023-11-19T17:21:33;12.50;99.90
3310;DHT22;1667;53.238;10.394;2023-11-19T17:26:32;12.60;99.90
3310;DHT22;1667;53.238;10.394;2023-11-19T17:31:34;12.50;99.90
3310;DHT22;1667;53.238;10.394;2023-11-19T17:36:35;12.60;99.90
3310;DHT22;1667;53.238;10.394;2023-11-19T17:41:34;12.60;99.90
3310;DHT22;1667;53.238;10.394;2023-11-19T17:46:33;12.50;99.90
3310;DHT22;1667;53.238;10.394;2023-11-19T17:51:32;12.50;99.90
3310;DHT22;1667;53.238;10.394;2023-11-19T17:56:32;12.50;99.90
3310;DHT22;1667;53.238;10.394;2023-11-19T18:01:31;12.50;99.90
3310;DHT22;1667;53.238;10.394;2023-11-19T18:06:29;12.50;99.90
3310;DHT22;1667;53.238;10.394;2023-11-19T18:11:28;12.50;99.90
3310;DHT22;1667;53.238;10.394;2023-11-19T18:16:29;12.50;99.90
3310;DHT22;1667;53.238;10.394;2023-11-19T18:21:29;12.50;99.90
3310;DHT22;1667;53.238;10.394;2023-11-19T18:26:30;12.50;99.90
3310;DHT22;1667;53.238;10.394;2023-11-19T18:31:33;12.60;99.90
3310;DHT22;1667;53.238;10.394;2023-11-19T18:36:34;12.60;99.90
3310;DHT22;1667;53.238;10.394;2023-11-19T18:41:34;12.60;99.90
3310;DHT22;1667;53.238;10.394;2023-11-19T18:46:34;12.60;99.90
3310;DHT22;1667;53.238;10.394;2023-11-19T18:51:33;12.60;99.90
3310;DHT22;1667;53.238;10.394;2023-11-19T18:56:32;12.60;99.90
3310;DHT22;1667;53.238;10.394;2023-11-19T19:01:31;12.60;99.90
3310;DHT22;1667;53.238;10.394;2023-11-19T19:06:32;12.60;99.90
3310;DHT22;1667;53.238;10.394;2023-11-19T19:11:31;12.60;99.90
3310;DHT22;1667;53.238;10.394;2023-11-19T19:16:30;12.70;99.90
3310;DHT22;1667;53.238;10.394;2023-11-19T19:21:30;12.70;99.90
3310;DHT22;1667;53.238;10.394;2023-11-19T19:26:30;12.70;99.90
3310;DHT22;1667;53.238;10.394;2023-11-19T19:31:29;12.70;99.90
3310;DHT22;1667;53.238;10.394;2023-11-19T19:36:29;12.70;99.90
3310;DHT22;1667;53.238;10.394;2023-11-19T19:41:31;12.70;99.90
3310;DHT22;1667;53.238;10.394;2023-11-19T19:46:30;12.70;99.90
3310;DHT22;1667;53.238;10.394;2023-11-19T19:51:30;12.70;99.90
3310;DHT22;1667;53.238;10.394;2023-11-19T19:56:28;12.70;99.90
3310;DHT22;1667;53.238;10.394;2023-11-19T20:01:29;12.70;99.90
3310;DHT22;1667;53.238;10.394;2023-11-19T20:06:36;12.70;99.90
3310;DHT22;1667;53.238;10.394;2023-11-19T20:11:35;12.70;99.90
3310;DHT22;1667;53.238;10.394;2023-11-19T20:16:35;12.70;99.90
3310;DHT22;1667;53.238;10.394;2023-11-19T20:21:34;12.70;99.90
3310;DHT22;1667;53.238;10.394;2023-11-19T20:26:33;12.70;99.90
3310;DHT22;1667;53.238;10.394;2023-11-19T20:31:32;12.70;99.90
3310;DHT22;1667;53.238;10.394;2023-11-19T20:36:33;12.70;99.90
3310;DHT22;1667;53.238;10.394;2023-11-19T20:41:32;12.70;99.90
3310;DHT22;1667;53.238;10.394;2023-11-19T20:46:31;12.70;99.90
3310;DHT22;1667;53.238;10.394;2023-11-19T20:51:30;12.80;99.90
3310;DHT22;1667;53.238;10.394;2023-11-19T20:56:32;12.80;99.90
3310;DHT22;1667;53.238;10.394;2023-11-19T21:01:31;12.80;99.90
3310;DHT22;1667;53.238;10.394;2023-11-19T21:06:30;12.80;99.90
3310;DHT22;1667;53.238;10.394;2023-11-19T21:11:52;12.80;99.90
3310;DHT22;1667;53.238;10.394;2023-11-19T21:16:51;12.80;99.90
3310;DHT22;1667;53.238;10.394;2023-11-19T21:21:50;12.80;99.90
3310;DHT22;1667;53.238;10.394;2023-11-19T21:26:49;12.80;99.90
3310;DHT22;1667;53.238;10.394;2023-11-19T21:32:09;12.80;99.90
3310;DHT22;1667;53.238;10.394;2023-11-19T21:37:08;12.80;99.90
3310;DHT22;1667;53.238;10.394;2023-11-19T21:42:07;12.80;99.90
3310;DHT22;1667;53.238;10.394;2023-11-19T21:47:06;12.90;99.90
3310;DHT22;1667;53.238;10.394;2023-11-19T21:52:08;12.90;99.90
3310;DHT22;1667;53.238;10.394;2023-11-19T21:57:06;12.90;99.90
3310;DHT22;1667;53.238;10.394;2023-11-19T22:02:05;12.90;99.90
3310;DHT22;1667;53.238;10.394;2023-11-19T22:07:05;12.90;99.90
3310;DHT22;1667;53.238;10.394;2023-11-19T22:12:06;12.90;99.90
3310;DHT22;1667;53.238;10.394;2023-11-19T22:17:06;12.90;99.90
3310;DHT22;1667;53.238;10.394;2023-11-19T22:22:05;12.90;99.90
3310;DHT22;1667;53.238;10.394;2023-11-19T22:27:07;12.90;99.90
3310;DHT22;1667;53.238;10.394;2023-11-19T22:32:07;12.90;99.90
3310;DHT22;1667;53.238;10.394;2023-11-19T22:37:06;12.90;99.90
3310;DHT22;1667;53.238;10.394;2023-11-19T22:42:06;12.90;99.90
3310;DHT22;1667;53.238;10.394;2023-11-19T22:47:05;12.90;99.90
3310;DHT22;1667;53.238;10.394;2023-11-19T22:52:05;12.90;99.90
3310;DHT22;1667;53.238;10.394;2023-11-19T22:57:04;12.90;99.90
3310;DHT22;1667;53.238;10.394;2023-11-19T23:02:05;12.90;99.90
3310;DHT22;1667;53.238;10.394;2023-11-19T23:07:04;12.90;99.90
3310;DHT22;1667;53.238;10.394;2023-11-19T23:12:04;12.90;99.90
3310;DHT22;1667;53.238;10.394;2023-11-19T23:17:04;12.90;99.90
3310;DHT22;1667;53.238;10.394;2023-11-19T23:22:04;12.90;99.90
3310;DHT22;1667;53.238;10.394;2023-11-19T23:27:03;12.90;99.90
3310;DHT22;1667;53.238;10.394;2023-11-19T23:32:02;12.90;99.90
3310;DHT22;1667;53.238;10.394;2023-11-19T23:37:03;12.90;99.90
3310;DHT22;1667;53.238;10.394;2023-11-19T23:42:02;12.90;99.90
3310;DHT22;1667;53.238;10.394;2023-11-19T23:47:00;12.90;99.90
3310;DHT22;1667;53.238;10.394;2023-11-19T23:52:00;12.90;99.90
3310;DHT22;1667;53.238;10.394;2023-11-19T23:57:03;12.90;99.90
